sensor_id;sensor_type;location;lat;lon;timestamp;P1;durP1;ratioP1;P2;durP2;ratioP2
64459;SDS011;50828;53.756;21.140;2023-05-29T00:04:42;8.10;;;2.30;;
64459;SDS011;50828;53.756;21.140;2023-05-29T00:09:50;3.70;;;1.90;;
64459;SDS011;50828;53.756;21.140;2023-05-29T00:14:59;4.30;;;2.00;;
64459;SDS011;50828;53.756;21.140;2023-05-29T00:20:10;5.30;;;2.30;;
64459;SDS011;50828;53.756;21.140;2023-05-29T00:25:19;4.50;;;2.00;;
64459;SDS011;50828;53.756;21.140;2023-05-29T00:30:28;6.30;;;2.50;;
64459;SDS011;50828;53.756;21.140;2023-05-29T00:35:36;3.80;;;2.10;;
64459;SDS011;50828;53.756;21.140;2023-05-29T00:40:44;4.90;;;2.60;;
64459;SDS011;50828;53.756;21.140;2023-05-29T00:45:52;5.60;;;2.20;;
64459;SDS011;50828;53.756;21.140;2023-05-29T00:51:01;14.10;;;4.20;;
64459;SDS011;50828;53.756;21.140;2023-05-29T00:56:11;7.40;;;2.50;;
64459;SDS011;50828;53.756;21.140;2023-05-29T01:01:20;3.40;;;2.10;;
64459;SDS011;50828;53.756;21.140;2023-05-29T01:06:28;6.80;;;2.40;;
64459;SDS011;50828;53.756;21.140;2023-05-29T01:11:44;6.30;;;2.10;;
64459;SDS011;50828;53.756;21.140;2023-05-29T01:16:59;5.20;;;2.50;;
64459;SDS011;50828;53.756;21.140;2023-05-29T01:22:11;7.20;;;2.30;;
64459;SDS011;50828;53.756;21.140;2023-05-29T01:27:30;5.00;;;2.40;;
64459;SDS011;50828;53.756;21.140;2023-05-29T01:32:41;5.10;;;2.10;;
64459;SDS011;50828;53.756;21.140;2023-05-29T01:37:51;5.80;;;2.50;;
64459;SDS011;50828;53.756;21.140;2023-05-29T01:43:00;4.20;;;2.30;;
64459;SDS011;50828;53.756;21.140;2023-05-29T01:48:09;6.20;;;2.30;;
64459;SDS011;50828;53.756;21.140;2023-05-29T01:53:17;4.80;;;2.20;;
64459;SDS011;50828;53.756;21.140;2023-05-29T01:58:26;4.00;;;2.00;;
64459;SDS011;50828;53.756;21.140;2023-05-29T02:03:36;4.50;;;2.30;;
64459;SDS011;50828;53.756;21.140;2023-05-29T02:08:44;5.00;;;2.30;;
64459;SDS011;50828;53.756;21.140;2023-05-29T02:13:52;5.70;;;2.00;;
64459;SDS011;50828;53.756;21.140;2023-05-29T02:19:01;4.60;;;2.10;;
64459;SDS011;50828;53.756;21.140;2023-05-29T02:24:11;4.80;;;2.10;;
64459;SDS011;50828;53.756;21.140;2023-05-29T02:29:18;5.70;;;2.50;;
64459;SDS011;50828;53.756;21.140;2023-05-29T02:34:26;4.10;;;2.10;;
64459;SDS011;50828;53.756;21.140;2023-05-29T02:39:34;3.60;;;2.10;;
64459;SDS011;50828;53.756;21.140;2023-05-29T02:44:43;4.10;;;2.10;;
64459;SDS011;50828;53.756;21.140;2023-05-29T02:49:55;4.60;;;2.00;;
64459;SDS011;50828;53.756;21.140;2023-05-29T02:55:04;7.10;;;2.10;;
64459;SDS011;50828;53.756;21.140;2023-05-29T03:00:13;4.40;;;2.10;;
64459;SDS011;50828;53.756;21.140;2023-05-29T03:05:23;4.30;;;1.90;;
64459;SDS011;50828;53.756;21.140;2023-05-29T03:10:31;3.60;;;2.00;;
64459;SDS011;50828;53.756;21.140;2023-05-29T03:15:40;5.80;;;2.10;;
64459;SDS011;50828;53.756;21.140;2023-05-29T03:20:49;4.90;;;2.40;;
64459;SDS011;50828;53.756;21.140;2023-05-29T03:25:57;5.40;;;2.30;;
64459;SDS011;50828;53.756;21.140;2023-05-29T03:31:06;6.10;;;2.10;;
64459;SDS011;50828;53.756;21.140;2023-05-29T03:36:14;3.20;;;1.60;;
64459;SDS011;50828;53.756;21.140;2023-05-29T03:41:23;4.60;;;2.00;;
64459;SDS011;50828;53.756;21.140;2023-05-29T03:46:31;5.20;;;2.10;;
64459;SDS011;50828;53.756;21.140;2023-05-29T03:51:41;4.80;;;2.10;;
64459;SDS011;50828;53.756;21.140;2023-05-29T03:56:49;4.90;;;2.10;;
64459;SDS011;50828;53.756;21.140;2023-05-29T04:01:57;8.70;;;2.30;;
64459;SDS011;50828;53.756;21.140;2023-05-29T04:07:06;5.60;;;2.00;;
64459;SDS011;50828;53.756;21.140;2023-05-29T04:12:14;3.60;;;2.20;;
64459;SDS011;50828;53.756;21.140;2023-05-29T04:17:23;6.20;;;2.30;;
64459;SDS011;50828;53.756;21.140;2023-05-29T04:22:31;8.20;;;3.10;;
64459;SDS011;50828;53.756;21.140;2023-05-29T04:27:40;4.30;;;2.00;;
64459;SDS011;50828;53.756;21.140;2023-05-29T04:32:54;3.80;;;2.20;;
64459;SDS011;50828;53.756;21.140;2023-05-29T04:38:04;5.70;;;2.50;;
64459;SDS011;50828;53.756;21.140;2023-05-29T04:43:13;9.50;;;2.40;;
64459;SDS011;50828;53.756;21.140;2023-05-29T04:48:39;5.70;;;2.90;;
64459;SDS011;50828;53.756;21.140;2023-05-29T04:53:51;6.70;;;2.90;;
64459;SDS011;50828;53.756;21.140;2023-05-29T05:04:06;5.00;;;2.60;;
64459;SDS011;50828;53.756;21.140;2023-05-29T05:09:14;4.20;;;2.70;;
64459;SDS011;50828;53.756;21.140;2023-05-29T05:14:23;6.40;;;2.90;;
64459;SDS011;50828;53.756;21.140;2023-05-29T05:19:33;6.00;;;2.90;;
64459;SDS011;50828;53.756;21.140;2023-05-29T05:24:43;6.20;;;2.90;;
64459;SDS011;50828;53.756;21.140;2023-05-29T05:29:50;5.60;;;3.20;;
64459;SDS011;50828;53.756;21.140;2023-05-29T05:35:00;9.00;;;3.20;;
64459;SDS011;50828;53.756;21.140;2023-05-29T05:40:09;6.30;;;3.00;;
64459;SDS011;50828;53.756;21.140;2023-05-29T05:45:26;5.40;;;2.70;;
64459;SDS011;50828;53.756;21.140;2023-05-29T05:50:34;4.80;;;2.50;;
64459;SDS011;50828;53.756;21.140;2023-05-29T05:55:42;5.60;;;2.00;;
64459;SDS011;50828;53.756;21.140;2023-05-29T06:00:51;7.60;;;2.30;;
64459;SDS011;50828;53.756;21.140;2023-05-29T06:06:00;6.30;;;2.20;;
64459;SDS011;50828;53.756;21.140;2023-05-29T06:11:10;4.40;;;1.90;;
64459;SDS011;50828;53.756;21.140;2023-05-29T06:16:20;5.90;;;2.10;;
64459;SDS011;50828;53.756;21.140;2023-05-29T06:21:29;5.10;;;2.10;;
64459;SDS011;50828;53.756;21.140;2023-05-29T06:26:38;10.20;;;2.60;;
64459;SDS011;50828;53.756;21.140;2023-05-29T06:31:48;8.50;;;2.20;;
64459;SDS011;50828;53.756;21.140;2023-05-29T06:36:57;7.00;;;2.20;;
64459;SDS011;50828;53.756;21.140;2023-05-29T06:42:05;6.10;;;1.90;;
64459;SDS011;50828;53.756;21.140;2023-05-29T06:47:18;7.80;;;2.50;;
64459;SDS011;50828;53.756;21.140;2023-05-29T06:52:27;7.40;;;2.20;;
64459;SDS011;50828;53.756;21.140;2023-05-29T06:58:01;8.60;;;2.60;;
64459;SDS011;50828;53.756;21.140;2023-05-29T07:03:10;5.80;;;1.90;;
64459;SDS011;50828;53.756;21.140;2023-05-29T07:08:19;8.40;;;2.60;;
64459;SDS011;50828;53.756;21.140;2023-05-29T07:13:29;7.20;;;2.30;;
64459;SDS011;50828;53.756;21.140;2023-05-29T07:18:38;5.50;;;2.20;;
64459;SDS011;50828;53.756;21.140;2023-05-29T07:23:48;7.90;;;2.30;;
64459;SDS011;50828;53.756;21.140;2023-05-29T07:28:57;9.40;;;2.80;;
64459;SDS011;50828;53.756;21.140;2023-05-29T07:34:09;8.10;;;2.50;;
64459;SDS011;50828;53.756;21.140;2023-05-29T07:39:16;6.20;;;2.30;;
64459;SDS011;50828;53.756;21.140;2023-05-29T07:44:25;4.80;;;2.60;;
64459;SDS011;50828;53.756;21.140;2023-05-29T07:49:34;9.70;;;2.70;;
64459;SDS011;50828;53.756;21.140;2023-05-29T07:54:43;7.50;;;2.30;;
64459;SDS011;50828;53.756;21.140;2023-05-29T07:59:52;7.40;;;2.90;;
64459;SDS011;50828;53.756;21.140;2023-05-29T08:05:01;8.80;;;2.50;;
64459;SDS011;50828;53.756;21.140;2023-05-29T08:10:13;6.90;;;2.70;;
64459;SDS011;50828;53.756;21.140;2023-05-29T08:15:25;10.10;;;3.30;;
64459;SDS011;50828;53.756;21.140;2023-05-29T08:20:33;7.90;;;2.80;;
64459;SDS011;50828;53.756;21.140;2023-05-29T08:25:42;6.10;;;3.10;;
64459;SDS011;50828;53.756;21.140;2023-05-29T08:30:51;8.40;;;2.90;;
64459;SDS011;50828;53.756;21.140;2023-05-29T08:36:00;7.00;;;2.40;;
64459;SDS011;50828;53.756;21.140;2023-05-29T08:41:07;8.10;;;2.90;;
64459;SDS011;50828;53.756;21.140;2023-05-29T08:46:18;8.30;;;3.50;;
64459;SDS011;50828;53.756;21.140;2023-05-29T08:51:27;9.20;;;3.00;;
64459;SDS011;50828;53.756;21.140;2023-05-29T08:56:41;13.10;;;3.00;;
64459;SDS011;50828;53.756;21.140;2023-05-29T09:01:50;8.30;;;3.00;;
64459;SDS011;50828;53.756;21.140;2023-05-29T09:06:58;7.30;;;3.00;;
64459;SDS011;50828;53.756;21.140;2023-05-29T09:12:07;10.20;;;2.80;;
64459;SDS011;50828;53.756;21.140;2023-05-29T09:17:15;7.00;;;3.10;;
64459;SDS011;50828;53.756;21.140;2023-05-29T09:22:23;7.10;;;2.70;;
64459;SDS011;50828;53.756;21.140;2023-05-29T09:27:32;7.20;;;3.10;;
64459;SDS011;50828;53.756;21.140;2023-05-29T09:32:44;11.90;;;3.20;;
64459;SDS011;50828;53.756;21.140;2023-05-29T09:38:00;6.40;;;2.70;;
64459;SDS011;50828;53.756;21.140;2023-05-29T09:43:11;11.20;;;3.30;;
64459;SDS011;50828;53.756;21.140;2023-05-29T09:48:22;10.40;;;3.60;;
64459;SDS011;50828;53.756;21.140;2023-05-29T09:53:32;10.00;;;3.10;;
64459;SDS011;50828;53.756;21.140;2023-05-29T09:58:47;7.80;;;2.70;;
64459;SDS011;50828;53.756;21.140;2023-05-29T10:03:56;8.00;;;2.80;;
64459;SDS011;50828;53.756;21.140;2023-05-29T10:09:06;8.70;;;2.70;;
64459;SDS011;50828;53.756;21.140;2023-05-29T10:14:18;8.50;;;3.00;;
64459;SDS011;50828;53.756;21.140;2023-05-29T10:19:28;6.70;;;3.00;;
64459;SDS011;50828;53.756;21.140;2023-05-29T10:24:38;8.20;;;3.10;;
64459;SDS011;50828;53.756;21.140;2023-05-29T10:29:48;8.50;;;3.00;;
64459;SDS011;50828;53.756;21.140;2023-05-29T10:35:08;6.40;;;2.40;;
64459;SDS011;50828;53.756;21.140;2023-05-29T10:40:24;9.50;;;2.70;;
64459;SDS011;50828;53.756;21.140;2023-05-29T10:45:51;9.70;;;2.60;;
64459;SDS011;50828;53.756;21.140;2023-05-29T10:51:01;9.50;;;3.40;;
64459;SDS011;50828;53.756;21.140;2023-05-29T10:56:22;6.90;;;2.80;;
64459;SDS011;50828;53.756;21.140;2023-05-29T11:01:33;6.80;;;2.40;;
64459;SDS011;50828;53.756;21.140;2023-05-29T11:06:44;8.10;;;2.90;;
64459;SDS011;50828;53.756;21.140;2023-05-29T11:17:42;6.40;;;2.80;;
64459;SDS011;50828;53.756;21.140;2023-05-29T11:22:56;9.60;;;2.90;;
64459;SDS011;50828;53.756;21.140;2023-05-29T11:28:13;8.80;;;3.00;;
64459;SDS011;50828;53.756;21.140;2023-05-29T11:33:26;10.70;;;2.90;;
64459;SDS011;50828;53.756;21.140;2023-05-29T11:38:37;6.60;;;2.70;;
64459;SDS011;50828;53.756;21.140;2023-05-29T11:43:45;10.00;;;3.00;;
64459;SDS011;50828;53.756;21.140;2023-05-29T11:49:06;8.90;;;2.80;;
64459;SDS011;50828;53.756;21.140;2023-05-29T11:54:16;6.60;;;3.20;;
64459;SDS011;50828;53.756;21.140;2023-05-29T11:59:29;7.20;;;3.00;;
64459;SDS011;50828;53.756;21.140;2023-05-29T12:04:37;10.10;;;2.90;;
64459;SDS011;50828;53.756;21.140;2023-05-29T12:09:45;9.30;;;3.00;;
64459;SDS011;50828;53.756;21.140;2023-05-29T12:20:04;7.00;;;2.90;;
64459;SDS011;50828;53.756;21.140;2023-05-29T12:25:15;6.40;;;2.20;;
64459;SDS011;50828;53.756;21.140;2023-05-29T12:30:26;5.80;;;2.20;;
64459;SDS011;50828;53.756;21.140;2023-05-29T12:35:38;5.50;;;2.40;;
64459;SDS011;50828;53.756;21.140;2023-05-29T12:40:53;7.10;;;2.50;;
64459;SDS011;50828;53.756;21.140;2023-05-29T12:46:01;7.30;;;2.70;;
64459;SDS011;50828;53.756;21.140;2023-05-29T12:51:11;6.60;;;2.30;;
64459;SDS011;50828;53.756;21.140;2023-05-29T12:56:18;8.90;;;2.80;;
64459;SDS011;50828;53.756;21.140;2023-05-29T13:01:27;13.70;;;2.70;;
64459;SDS011;50828;53.756;21.140;2023-05-29T13:06:36;8.20;;;2.40;;
64459;SDS011;50828;53.756;21.140;2023-05-29T13:11:45;6.90;;;2.40;;
64459;SDS011;50828;53.756;21.140;2023-05-29T13:16:53;8.90;;;3.30;;
64459;SDS011;50828;53.756;21.140;2023-05-29T13:22:02;6.30;;;2.30;;
64459;SDS011;50828;53.756;21.140;2023-05-29T13:27:12;6.30;;;3.30;;
64459;SDS011;50828;53.756;21.140;2023-05-29T13:37:28;7.70;;;2.70;;
64459;SDS011;50828;53.756;21.140;2023-05-29T13:42:36;6.80;;;2.80;;
64459;SDS011;50828;53.756;21.140;2023-05-29T13:47:45;6.00;;;2.50;;
64459;SDS011;50828;53.756;21.140;2023-05-29T13:52:54;4.70;;;2.40;;
64459;SDS011;50828;53.756;21.140;2023-05-29T13:58:03;5.00;;;2.20;;
64459;SDS011;50828;53.756;21.140;2023-05-29T14:03:12;5.10;;;2.30;;
64459;SDS011;50828;53.756;21.140;2023-05-29T14:08:20;6.30;;;2.40;;
64459;SDS011;50828;53.756;21.140;2023-05-29T14:13:29;7.90;;;2.80;;
64459;SDS011;50828;53.756;21.140;2023-05-29T14:18:38;6.40;;;2.70;;
64459;SDS011;50828;53.756;21.140;2023-05-29T14:23:45;7.10;;;3.20;;
64459;SDS011;50828;53.756;21.140;2023-05-29T14:28:57;7.60;;;3.00;;
64459;SDS011;50828;53.756;21.140;2023-05-29T14:34:17;8.70;;;2.60;;
64459;SDS011;50828;53.756;21.140;2023-05-29T14:39:25;8.20;;;3.00;;
64459;SDS011;50828;53.756;21.140;2023-05-29T14:44:34;7.80;;;3.20;;
64459;SDS011;50828;53.756;21.140;2023-05-29T14:49:42;10.60;;;3.60;;
64459;SDS011;50828;53.756;21.140;2023-05-29T14:54:50;9.40;;;4.10;;
64459;SDS011;50828;53.756;21.140;2023-05-29T14:59:58;15.00;;;7.30;;
64459;SDS011;50828;53.756;21.140;2023-05-29T15:05:07;9.00;;;4.90;;
64459;SDS011;50828;53.756;21.140;2023-05-29T15:10:15;8.80;;;3.10;;
64459;SDS011;50828;53.756;21.140;2023-05-29T15:15:24;10.20;;;3.40;;
64459;SDS011;50828;53.756;21.140;2023-05-29T15:20:50;14.30;;;4.60;;
64459;SDS011;50828;53.756;21.140;2023-05-29T15:25:58;11.90;;;3.60;;
64459;SDS011;50828;53.756;21.140;2023-05-29T15:31:07;9.80;;;2.70;;
64459;SDS011;50828;53.756;21.140;2023-05-29T15:36:16;9.70;;;2.40;;
64459;SDS011;50828;53.756;21.140;2023-05-29T15:41:25;8.60;;;2.50;;
64459;SDS011;50828;53.756;21.140;2023-05-29T15:46:33;10.10;;;3.40;;
64459;SDS011;50828;53.756;21.140;2023-05-29T15:51:41;11.20;;;3.90;;
64459;SDS011;50828;53.756;21.140;2023-05-29T15:56:49;11.30;;;4.80;;
64459;SDS011;50828;53.756;21.140;2023-05-29T16:01:58;10.30;;;5.10;;
64459;SDS011;50828;53.756;21.140;2023-05-29T16:07:07;7.00;;;3.20;;
64459;SDS011;50828;53.756;21.140;2023-05-29T16:12:16;9.30;;;3.70;;
64459;SDS011;50828;53.756;21.140;2023-05-29T16:17:24;9.80;;;3.30;;
64459;SDS011;50828;53.756;21.140;2023-05-29T16:22:33;10.40;;;2.30;;
64459;SDS011;50828;53.756;21.140;2023-05-29T16:27:45;8.10;;;2.40;;
64459;SDS011;50828;53.756;21.140;2023-05-29T16:32:52;6.90;;;2.60;;
64459;SDS011;50828;53.756;21.140;2023-05-29T16:38:01;9.20;;;2.80;;
64459;SDS011;50828;53.756;21.140;2023-05-29T16:43:08;10.50;;;2.70;;
64459;SDS011;50828;53.756;21.140;2023-05-29T16:48:16;9.30;;;3.00;;
64459;SDS011;50828;53.756;21.140;2023-05-29T16:53:25;7.10;;;2.30;;
64459;SDS011;50828;53.756;21.140;2023-05-29T16:58:32;7.10;;;2.10;;
64459;SDS011;50828;53.756;21.140;2023-05-29T17:03:40;7.40;;;2.40;;
64459;SDS011;50828;53.756;21.140;2023-05-29T17:08:48;11.30;;;2.80;;
64459;SDS011;50828;53.756;21.140;2023-05-29T17:13:56;9.20;;;2.30;;
64459;SDS011;50828;53.756;21.140;2023-05-29T17:19:04;17.30;;;7.00;;
64459;SDS011;50828;53.756;21.140;2023-05-29T17:24:12;19.80;;;6.70;;
64459;SDS011;50828;53.756;21.140;2023-05-29T17:29:26;14.50;;;5.50;;
64459;SDS011;50828;53.756;21.140;2023-05-29T17:34:34;13.80;;;5.20;;
64459;SDS011;50828;53.756;21.140;2023-05-29T17:39:42;16.00;;;6.20;;
64459;SDS011;50828;53.756;21.140;2023-05-29T17:44:50;23.20;;;7.60;;
64459;SDS011;50828;53.756;21.140;2023-05-29T17:49:58;26.90;;;9.50;;
64459;SDS011;50828;53.756;21.140;2023-05-29T17:55:07;20.90;;;5.70;;
64459;SDS011;50828;53.756;21.140;2023-05-29T18:00:16;16.50;;;5.20;;
64459;SDS011;50828;53.756;21.140;2023-05-29T18:05:24;14.30;;;3.50;;
64459;SDS011;50828;53.756;21.140;2023-05-29T18:10:33;11.00;;;3.10;;
64459;SDS011;50828;53.756;21.140;2023-05-29T18:15:41;8.10;;;2.70;;
64459;SDS011;50828;53.756;21.140;2023-05-29T18:20:49;11.90;;;3.70;;
64459;SDS011;50828;53.756;21.140;2023-05-29T18:25:57;19.40;;;6.10;;
64459;SDS011;50828;53.756;21.140;2023-05-29T18:31:07;37.70;;;10.50;;
64459;SDS011;50828;53.756;21.140;2023-05-29T18:36:15;41.40;;;10.30;;
64459;SDS011;50828;53.756;21.140;2023-05-29T18:41:24;46.80;;;10.70;;
64459;SDS011;50828;53.756;21.140;2023-05-29T18:46:32;44.30;;;9.30;;
64459;SDS011;50828;53.756;21.140;2023-05-29T18:51:41;43.70;;;9.80;;
64459;SDS011;50828;53.756;21.140;2023-05-29T18:56:50;43.40;;;11.00;;
64459;SDS011;50828;53.756;21.140;2023-05-29T19:01:58;47.10;;;9.80;;
64459;SDS011;50828;53.756;21.140;2023-05-29T19:07:06;34.70;;;8.70;;
64459;SDS011;50828;53.756;21.140;2023-05-29T19:12:13;37.30;;;8.40;;
64459;SDS011;50828;53.756;21.140;2023-05-29T19:17:21;30.00;;;8.10;;
64459;SDS011;50828;53.756;21.140;2023-05-29T19:22:29;27.40;;;7.70;;
64459;SDS011;50828;53.756;21.140;2023-05-29T19:27:38;31.90;;;8.20;;
64459;SDS011;50828;53.756;21.140;2023-05-29T19:32:48;23.20;;;7.20;;
64459;SDS011;50828;53.756;21.140;2023-05-29T19:37:56;26.50;;;8.60;;
64459;SDS011;50828;53.756;21.140;2023-05-29T19:43:05;21.90;;;7.70;;
64459;SDS011;50828;53.756;21.140;2023-05-29T19:48:13;18.80;;;5.50;;
64459;SDS011;50828;53.756;21.140;2023-05-29T19:53:21;20.40;;;5.70;;
64459;SDS011;50828;53.756;21.140;2023-05-29T19:58:29;18.60;;;6.00;;
64459;SDS011;50828;53.756;21.140;2023-05-29T20:03:37;28.40;;;6.70;;
64459;SDS011;50828;53.756;21.140;2023-05-29T20:08:46;18.50;;;5.40;;
64459;SDS011;50828;53.756;21.140;2023-05-29T20:13:54;19.00;;;5.10;;
64459;SDS011;50828;53.756;21.140;2023-05-29T20:19:04;14.50;;;5.20;;
64459;SDS011;50828;53.756;21.140;2023-05-29T20:24:12;12.20;;;4.40;;
64459;SDS011;50828;53.756;21.140;2023-05-29T20:29:21;15.00;;;4.10;;
64459;SDS011;50828;53.756;21.140;2023-05-29T20:34:29;13.10;;;3.50;;
64459;SDS011;50828;53.756;21.140;2023-05-29T20:39:38;9.90;;;3.00;;
64459;SDS011;50828;53.756;21.140;2023-05-29T20:44:48;12.60;;;3.20;;
64459;SDS011;50828;53.756;21.140;2023-05-29T20:49:57;14.60;;;4.80;;
64459;SDS011;50828;53.756;21.140;2023-05-29T20:55:08;19.70;;;5.80;;
64459;SDS011;50828;53.756;21.140;2023-05-29T21:00:16;17.80;;;5.90;;
64459;SDS011;50828;53.756;21.140;2023-05-29T21:05:26;14.60;;;5.60;;
64459;SDS011;50828;53.756;21.140;2023-05-29T21:10:34;16.60;;;5.00;;
64459;SDS011;50828;53.756;21.140;2023-05-29T21:15:42;14.10;;;4.30;;
64459;SDS011;50828;53.756;21.140;2023-05-29T21:20:50;11.80;;;4.40;;
64459;SDS011;50828;53.756;21.140;2023-05-29T21:25:59;5.90;;;2.40;;
64459;SDS011;50828;53.756;21.140;2023-05-29T21:31:07;11.60;;;3.10;;
64459;SDS011;50828;53.756;21.140;2023-05-29T21:36:17;8.90;;;1.70;;
64459;SDS011;50828;53.756;21.140;2023-05-29T21:41:25;7.20;;;1.90;;
64459;SDS011;50828;53.756;21.140;2023-05-29T21:46:35;9.30;;;2.00;;
64459;SDS011;50828;53.756;21.140;2023-05-29T21:51:45;5.90;;;1.70;;
64459;SDS011;50828;53.756;21.140;2023-05-29T21:56:55;6.20;;;1.60;;
64459;SDS011;50828;53.756;21.140;2023-05-29T22:02:04;6.00;;;2.20;;
64459;SDS011;50828;53.756;21.140;2023-05-29T22:07:16;9.80;;;2.90;;
64459;SDS011;50828;53.756;21.140;2023-05-29T22:12:26;7.70;;;3.00;;
64459;SDS011;50828;53.756;21.140;2023-05-29T22:17:35;14.90;;;4.90;;
64459;SDS011;50828;53.756;21.140;2023-05-29T22:22:45;12.70;;;5.30;;
64459;SDS011;50828;53.756;21.140;2023-05-29T22:27:57;17.30;;;5.00;;
64459;SDS011;50828;53.756;21.140;2023-05-29T22:33:05;13.50;;;4.20;;
64459;SDS011;50828;53.756;21.140;2023-05-29T22:38:14;10.70;;;3.70;;
64459;SDS011;50828;53.756;21.140;2023-05-29T22:43:24;13.40;;;2.70;;
64459;SDS011;50828;53.756;21.140;2023-05-29T22:48:33;9.10;;;3.00;;
64459;SDS011;50828;53.756;21.140;2023-05-29T22:53:44;9.00;;;2.80;;
64459;SDS011;50828;53.756;21.140;2023-05-29T22:58:54;6.40;;;2.10;;
64459;SDS011;50828;53.756;21.140;2023-05-29T23:04:02;6.60;;;2.00;;
64459;SDS011;50828;53.756;21.140;2023-05-29T23:09:11;5.00;;;2.20;;
64459;SDS011;50828;53.756;21.140;2023-05-29T23:14:20;8.00;;;2.00;;
64459;SDS011;50828;53.756;21.140;2023-05-29T23:19:28;6.60;;;2.20;;
64459;SDS011;50828;53.756;21.140;2023-05-29T23:24:36;9.30;;;2.60;;
64459;SDS011;50828;53.756;21.140;2023-05-29T23:29:44;5.00;;;1.80;;
64459;SDS011;50828;53.756;21.140;2023-05-29T23:34:53;7.30;;;1.90;;
64459;SDS011;50828;53.756;21.140;2023-05-29T23:40:02;7.30;;;2.00;;
64459;SDS011;50828;53.756;21.140;2023-05-29T23:45:12;6.30;;;2.00;;
64459;SDS011;50828;53.756;21.140;2023-05-29T23:50:21;8.70;;;3.10;;
64459;SDS011;50828;53.756;21.140;2023-05-29T23:55:30;6.30;;;2.20;;
